Atkins, IA

3:54 AM CDT on September 17, 2014 (GMT -0500)
Ridgeview Estates | Change Station
CLOSE
Current Station
Personal Weather Station
Location: Atkins, IA
Elevation: 860 ft
Nearby Weather Stations

Elev 860 ft 41.99 °N, 91.85 °W | Updated 32 seconds ago

Partly Cloudy
Partly Cloudy
50.0 °F
Feels Like 50.0 °F
N
1.2
Wind Variable Wind from ENE
Gusts 3.1 mph

Today
High -- | Low -- °F
--% Chance of Precip.
Yesterday
High -- | Low -- °F
Precip. -- in
6:49 AM 7:13 PM
Last Quarter, 38% visible
Pressure 30.03 in
Visibility 10.0 miles
Clouds Mostly Cloudy 8000 ft
Dew Point 47 °F
Humidity 90%
Rainfall 0.00 in
Snow Depth Not available.
UV 0 out of 12
Pollen 5.10 out of 12
Air Quality Not available.
Flu Activity Not available.
METAR KCID 170752Z AUTO 13003KT 10SM BKN080 08/07 A3003

More Conditions Fewer Conditions

Pressure 30.03 in
Visibility 10.0 miles
Clouds Mostly Cloudy 8000 ft
Dew Point 47 °F
Humidity 90%
Rainfall 0.00 in
Snow Depth Not available.
UV 0 out of 12
Pollen 5.10 out of 12
Air Quality Not available.
Flu Activity Not available.
METAR KCID 170752Z AUTO 13003KT 10SM BKN080 08/07 A3003

More Conditions Fewer Conditions

10-Day Weather Forecast

Almanac

Astronomy

Sep. 17, 2014 Rise Set
Actual Time 6:49 AM CDT 7:13 PM CDT
Civil Twilight 6:21 AM CDT 7:41 PM CDT
Nautical Twilight 5:48 AM CDT 8:14 PM CDT
Astronomical Twilight 5:14 AM CDT 8:47 PM CDT
Moon 12:45 AM CDT 3:27 PM CDT
Length of Visible Light 13h 19m
Length of Day
12h 23m
Tomorrow will be 2m 48s shorter.
Last Quarter, 38% of the Moon is Illuminated
Today
Last Quarter
Sep 24
New
Oct 1
First Quarter
Oct 8
Full
Oct 15
Last Quarter

Today's Extremes

State Highs State Lows

Community

WunderPhotos

Upload Photos

1,753,990 photos uploaded!

Nearby

Snow Depth

Station Depth Elevation
No new snow has been reported.

Earthquake Activity

City Distance Mag. Time & Date
No recent earthquake activity has been reported nearby.
Minimum magnitude displayed is 2.5.

Coastal Water Temperatures

Place Temperature
No Stations Reporting

Nearby Weather Stations